Time;durP1;ratioP1;P1;durP2;ratioP2;P2;SDS_P1;SDS_P2;PMS_P1;PMS_P2;Temp;Humidity;BMP_temperature;BMP_pressure;BME280_temperature;BME280_humidity;BME280_pressure;Samples;Min_cycle;Max_cycle;Signal;HPM_P1;HPM_P2
2022/01/18 00:02:23;;;;;;;13.37;11.97;;;;;;;7.66;64.06;99575.75;8482872;28;20244;-67
2022/01/18 00:06:26;;;;;;;12.33;10.30;;;;;;;7.72;63.38;99579.13;8483685;28;20421;-66
2022/01/18 00:10:32;;;;;;;12.00;10.80;;;;;;;7.59;63.08;99595.56;8483656;28;20560;-67
2022/01/18 00:14:42;;;;;;;11.23;10.10;;;;;;;7.52;63.20;99591.28;8483613;28;20229;-67
2022/01/18 00:18:49;;;;;;;12.43;10.70;;;;;;;7.47;63.84;99599.06;8483257;28;20229;-67
2022/01/18 00:22:51;;;;;;;11.83;10.73;;;;;;;7.43;64.44;99608.53;8483063;28;20237;-67
2022/01/18 00:26:56;;;;;;;13.20;11.87;;;;;;;7.52;63.75;99617.94;8483067;28;20512;-67
2022/01/18 00:31:34;;;;;;;14.57;13.07;;;;;;;7.45;63.59;99616.28;8482937;28;20235;-67
2022/01/18 00:35:40;;;;;;;18.23;13.80;;;;;;;7.51;63.94;99625.69;8471303;28;20540;-67
2022/01/18 00:39:43;;;;;;;15.93;13.73;;;;;;;7.40;64.47;99628.31;8482532;28;20236;-67
2022/01/18 00:43:47;;;;;;;16.17;14.47;;;;;;;7.54;63.66;99629.13;8482439;28;20239;-67
2022/01/18 00:47:50;;;;;;;15.97;14.27;;;;;;;7.54;63.34;99641.13;8482127;28;20234;-67
2022/01/18 00:51:56;;;;;;;15.57;13.97;;;;;;;7.51;63.33;99660.06;8481974;28;20230;-67
2022/01/18 00:56:11;;;;;;;19.27;14.63;;;;;;;7.52;63.31;99661.78;8482117;28;20233;-67
2022/01/18 01:00:16;;;;;;;17.20;15.33;;;;;;;7.55;63.25;99666.06;8481765;28;20225;-67
2022/01/18 01:04:21;;;;;;;19.77;14.90;;;;;;;7.57;63.54;99667.75;8481362;28;20229;-67
2022/01/18 01:08:24;;;;;;;16.03;14.37;;;;;;;7.59;62.99;99673.75;8481703;28;20229;-67
2022/01/18 01:12:28;;;;;;;17.80;14.10;;;;;;;7.56;62.90;99680.66;8481516;28;20232;-67
2022/01/18 01:16:54;;;;;;;17.57;13.73;;;;;;;7.62;63.12;99683.22;8481184;28;20520;-70
2022/01/18 01:34:37;;;;;;;16.50;12.83;;;;;;;7.60;62.83;99672.91;8480924;28;20237;-68
2022/01/18 01:43:19;;;;;;;14.17;11.17;;;;;;;7.51;62.57;99688.41;8447304;28;20528;-67
2022/01/18 01:47:33;;;;;;;15.17;11.03;;;;;;;7.62;62.61;99690.94;8449498;28;20214;-67
2022/01/18 01:51:37;;;;;;;17.47;10.43;;;;;;;7.57;62.56;99680.63;8449316;28;20210;-67
2022/01/18 01:55:41;;;;;;;15.43;9.77;;;;;;;7.56;62.58;99698.72;8447989;28;20240;-67
2022/01/18 01:59:44;;;;;;;17.60;10.93;;;;;;;7.55;62.67;99692.69;8447211;28;20234;-67
2022/01/18 02:03:49;;;;;;;18.43;12.13;;;;;;;7.55;62.64;99695.25;8446790;28;20578;-67
2022/01/18 02:07:53;;;;;;;15.83;11.23;;;;;;;7.59;62.87;99691.81;8447194;28;20240;-67
2022/01/18 02:11:57;;;;;;;15.83;11.30;;;;;;;7.52;62.38;99686.69;8446801;28;20229;-67
2022/01/18 02:16:15;;;;;;;17.57;10.80;;;;;;;7.64;62.29;99686.63;8446868;28;20313;-67
2022/01/18 02:24:45;;;;;;;17.07;10.77;;;;;;;7.53;62.63;99678.09;8446448;28;20245;-67
2022/01/18 02:28:48;;;;;;;14.40;10.37;;;;;;;7.50;62.56;99676.41;8446719;28;20230;-67
2022/01/18 02:32:51;;;;;;;13.00;9.87;;;;;;;7.50;62.53;99667.78;8446419;28;20427;-67
2022/01/18 02:36:57;;;;;;;17.30;10.67;;;;;;;7.55;62.61;99673.78;8446774;28;20566;-68
2022/01/18 02:41:00;;;;;;;13.77;10.00;;;;;;;7.54;62.39;99664.31;8446541;28;20225;-68
2022/01/18 02:45:03;;;;;;;16.07;9.37;;;;;;;7.52;62.61;99661.78;8446358;28;20432;-67
2022/01/18 02:49:06;;;;;;;15.13;9.70;;;;;;;7.56;62.50;99657.47;8446237;28;20237;-67
2022/01/18 02:53:11;;;;;;;13.60;10.07;;;;;;;7.54;62.59;99672.94;8447619;28;20234;-67
2022/01/18 02:57:16;;;;;;;16.57;10.10;;;;;;;7.58;62.46;99671.22;8452257;28;20540;-68
2022/01/18 03:05:39;;;;;;;14.27;9.97;;;;;;;7.50;62.94;99684.13;8451651;28;20276;-67
2022/01/18 03:09:44;;;;;;;15.60;10.50;;;;;;;7.41;63.04;99671.28;8451946;28;20437;-67
2022/01/18 03:13:47;;;;;;;14.80;8.97;;;;;;;7.38;62.81;99669.56;8451825;28;20229;-68
2022/01/18 03:17:50;;;;;;;16.20;8.67;;;;;;;7.44;62.04;99666.09;8451709;28;20229;-67
2022/01/18 03:21:56;;;;;;;14.90;8.30;;;;;;;7.49;61.47;99672.09;8451876;28;20230;-67
2022/01/18 03:26:02;;;;;;;16.43;7.63;;;;;;;7.53;62.23;99678.09;8451473;28;20415;-68
2022/01/18 03:30:07;;;;;;;14.63;8.50;;;;;;;7.51;62.23;99683.25;8451600;28;20237;-68
2022/01/18 03:34:10;;;;;;;14.60;6.80;;;;;;;7.55;61.82;99692.69;8451295;28;20303;-67
2022/01/18 03:38:14;;;;;;;13.97;7.77;;;;;;;7.55;61.73;99703.00;8451175;28;20512;-67
2022/01/18 03:42:38;;;;;;;14.53;7.57;;;;;;;7.48;62.15;99697.88;8451371;28;20230;-67
2022/01/18 03:46:41;;;;;;;12.40;7.23;;;;;;;7.50;62.12;99697.03;8450450;28;20279;-67
2022/01/18 03:50:44;;;;;;;12.30;6.40;;;;;;;7.46;61.96;99691.88;8451056;28;20545;-67
2022/01/18 03:54:50;;;;;;;17.00;7.27;;;;;;;7.49;61.92;99697.03;8450141;28;20317;-67
2022/01/18 03:58:54;;;;;;;13.97;7.33;;;;;;;7.45;62.48;99696.19;8450377;28;20226;-67
2022/01/18 04:02:59;;;;;;;13.40;7.30;;;;;;;7.42;62.36;99698.75;8450009;28;20222;-67
2022/01/18 04:07:02;;;;;;;13.87;7.10;;;;;;;7.40;62.33;99698.75;8449244;28;20234;-67
2022/01/18 04:11:05;;;;;;;13.90;7.17;;;;;;;7.46;62.12;99690.13;8449978;28;20426;-67
2022/01/18 04:15:12;;;;;;;13.10;6.67;;;;;;;7.49;61.97;99692.72;8449882;28;20233;-67
2022/01/18 04:25:47;;;;;;;11.13;6.70;;;;;;;7.43;62.25;99692.75;8449800;28;20556;-67
2022/01/18 04:28:13;;;;;;;16.60;11.10;;;;;;;7.36;62.75;99703.94;8449067;28;20225;-68
2022/01/18 04:32:18;;;;;;;16.43;11.83;;;;;;;7.47;62.52;99696.19;8449135;28;20237;-67
2022/01/18 04:36:21;;;;;;;20.00;15.40;;;;;;;7.40;62.39;99695.34;8449367;28;20555;-67
2022/01/18 04:40:28;;;;;;;18.30;14.93;;;;;;;7.43;62.79;99709.06;8448995;28;20229;-67
2022/01/18 04:48:53;;;;;;;17.77;15.80;;;;;;;7.48;62.46;99709.03;8448983;28;20242;-67
2022/01/18 04:52:56;;;;;;;19.13;16.33;;;;;;;7.42;62.57;99707.38;8448853;28;20226;-67
2022/01/18 05:01:19;;;;;;;20.87;18.17;;;;;;;7.32;63.33;99721.13;8448728;28;20233;-67
2022/01/18 05:05:26;;;;;;;20.80;18.30;;;;;;;7.21;63.69;99721.16;8481133;28;20293;-68
2022/01/18 05:09:29;;;;;;;21.40;18.03;;;;;;;7.41;63.09;99731.41;8481849;28;20247;-67
2022/01/18 05:18:13;;;;;;;22.20;18.90;;;;;;;7.48;63.10;99718.50;8480384;28;20433;-67
2022/01/18 05:26:37;;;;;;;19.70;16.67;;;;;;;7.38;63.16;99720.25;8480730;28;20429;-68
2022/01/18 05:30:41;;;;;;;19.27;16.90;;;;;;;7.49;62.94;99727.97;8481302;28;20233;-68
2022/01/18 05:34:48;;;;;;;18.40;16.10;;;;;;;7.45;62.92;99737.44;8480804;28;20248;-68
2022/01/18 05:38:53;;;;;;;20.07;15.27;;;;;;;7.53;62.40;99755.44;8480851;28;20252;-67
2022/01/18 05:42:56;;;;;;;17.40;14.97;;;;;;;7.52;62.30;99761.44;8480869;28;20232;-68
2022/01/18 05:46:59;;;;;;;18.30;15.03;;;;;;;7.48;62.58;99762.31;8480904;28;20229;-67
2022/01/18 05:51:02;;;;;;;23.23;15.80;;;;;;;7.47;62.30;99776.09;8459351;28;20399;-68
2022/01/18 05:55:09;;;;;;;18.53;15.73;;;;;;;7.48;62.45;99775.22;8447137;28;20559;-67
2022/01/18 05:59:21;;;;;;;22.70;15.60;;;;;;;7.39;62.78;99771.81;8446225;28;20221;-68
2022/01/18 06:03:30;;;;;;;16.20;14.10;;;;;;;7.44;62.48;99779.50;8448899;28;20229;-68
2022/01/18 06:07:33;;;;;;;17.37;14.43;;;;;;;7.50;62.38;99787.25;8450654;28;20230;-68
2022/01/18 06:11:39;;;;;;;20.87;14.53;;;;;;;7.55;62.12;99784.66;8446434;28;20232;-68
2022/01/18 06:15:42;;;;;;;18.07;13.80;;;;;;;7.52;62.19;99785.53;8443754;28;20549;-67
2022/01/18 06:19:45;;;;;;;16.87;12.53;;;;;;;7.51;62.40;99783.81;8446387;28;20234;-67
2022/01/18 06:23:48;;;;;;;16.27;10.90;;;;;;;7.53;61.53;99788.97;8446484;28;20230;-67
2022/01/18 06:27:53;;;;;;;14.27;9.30;;;;;;;7.55;61.42;99795.81;8448701;28;20242;-67
2022/01/18 06:31:56;;;;;;;13.93;8.53;;;;;;;7.51;61.22;99798.41;8453026;28;20241;-67
2022/01/18 06:35:59;;;;;;;12.07;7.40;;;;;;;7.55;61.07;99808.72;8452909;28;20230;-67
2022/01/18 06:40:04;;;;;;;10.47;6.83;;;;;;;7.48;61.07;99813.88;8453175;28;20249;-68
2022/01/18 06:44:08;;;;;;;9.80;5.47;;;;;;;7.54;60.92;99817.31;8452786;28;20268;-67
2022/01/18 06:48:11;;;;;;;10.70;5.40;;;;;;;7.52;60.93;99813.88;8452264;28;20256;-67
2022/01/18 06:52:14;;;;;;;8.80;5.37;;;;;;;7.44;61.10;99821.66;8452171;28;20248;-67
2022/01/18 06:56:20;;;;;;;10.43;5.50;;;;;;;7.51;60.66;99830.22;8452276;28;20241;-67
2022/01/18 07:00:24;;;;;;;11.90;5.17;;;;;;;7.39;61.05;99840.56;8451755;28;20233;-67
2022/01/18 07:04:27;;;;;;;10.33;4.90;;;;;;;7.52;60.93;99841.38;8451392;28;20237;-67
2022/01/18 07:08:31;;;;;;;9.43;5.33;;;;;;;7.43;60.97;99842.25;8451706;28;20424;-67
2022/01/18 07:12:35;;;;;;;8.40;4.43;;;;;;;7.51;61.22;99840.53;8451305;28;20229;-67
2022/01/18 07:16:39;;;;;;;9.23;4.33;;;;;;;7.46;61.35;99841.38;8451429;28;20234;-67
2022/01/18 07:20:42;;;;;;;8.53;3.90;;;;;;;7.44;61.03;99849.13;8451437;28;20230;-67
2022/01/18 07:24:46;;;;;;;11.17;5.00;;;;;;;7.40;60.91;99855.13;8451453;28;20421;-67
2022/01/18 07:28:49;;;;;;;10.70;6.33;;;;;;;7.35;61.18;99859.44;8451373;28;20225;-67
2022/01/18 07:32:54;;;;;;;10.50;6.40;;;;;;;7.38;61.01;99864.59;8450661;28;20234;-67
2022/01/18 07:36:57;;;;;;;14.37;7.60;;;;;;;7.42;61.28;99876.63;8453672;28;20233;-67
2022/01/18 07:41:00;;;;;;;12.10;6.87;;;;;;;7.40;61.39;99875.75;8450156;28;20590;-68
2022/01/18 07:45:03;;;;;;;12.03;6.73;;;;;;;7.41;61.35;99880.91;8450917;28;20233;-67
2022/01/18 07:49:07;;;;;;;11.53;6.13;;;;;;;7.42;61.29;99880.09;8450823;28;20245;-68
2022/01/18 07:53:11;;;;;;;14.33;6.23;;;;;;;7.43;61.53;99879.19;8450283;28;20230;-68
2022/01/18 07:57:15;;;;;;;10.87;5.77;;;;;;;7.50;61.46;99887.81;8450659;28;20251;-67
2022/01/18 08:01:20;;;;;;;9.70;5.03;;;;;;;7.48;61.36;99886.91;8450362;28;20249;-67
2022/01/18 08:05:24;;;;;;;9.00;5.30;;;;;;;7.37;61.66;99884.38;8449829;28;20238;-67
2022/01/18 08:09:27;;;;;;;8.70;5.00;;;;;;;7.60;61.61;99892.06;8449902;28;20230;-67
2022/01/18 08:13:37;;;;;;;13.33;6.40;;;;;;;7.59;61.27;99884.34;8450164;28;20230;-67
2022/01/18 08:17:41;;;;;;;11.53;6.43;;;;;;;7.66;61.19;99892.94;8449574;28;20222;-67
2022/01/18 08:21:45;;;;;;;10.33;5.73;;;;;;;7.72;61.23;99893.75;8449860;28;20279;-67
2022/01/18 08:25:48;;;;;;;12.50;5.90;;;;;;;7.89;60.75;99887.72;8449753;28;20249;-67
2022/01/18 08:29:51;;;;;;;9.53;5.10;;;;;;;9.08;58.07;99883.69;8449856;28;20261;-67
2022/01/18 08:33:54;;;;;;;12.23;5.30;;;;;;;10.15;55.33;99884.34;8449094;28;20248;-67
2022/01/18 08:37:58;;;;;;;12.97;4.90;;;;;;;10.92;54.18;99891.09;8449050;28;20533;-67
2022/01/18 08:42:01;;;;;;;8.53;3.97;;;;;;;10.26;59.66;99893.72;8448806;28;20559;-67
2022/01/18 08:46:04;;;;;;;12.77;3.60;;;;;;;10.44;56.99;99888.34;8448723;28;20229;-66
2022/01/18 08:50:09;;;;;;;13.23;4.10;;;;;;;10.73;56.87;99885.34;8448464;28;20630;-67
2022/01/18 08:54:13;;;;;;;7.80;3.00;;;;;;;11.73;66.39;99883.72;8447816;28;20229;-73
2022/01/18 08:58:16;;;;;;;12.60;4.00;;;;;;;11.58;53.64;99890.94;8448185;28;20233;-67
2022/01/18 09:02:19;;;;;;;9.03;3.50;;;;;;;10.44;54.85;99893.53;8462869;28;20230;-68
2022/01/18 09:06:24;;;;;;;12.20;4.30;;;;;;;9.80;55.58;99902.84;8448112;28;20420;-67
2022/01/18 09:10:29;;;;;;;12.00;4.60;;;;;;;9.92;55.88;99901.91;8448139;28;20240;-68
2022/01/18 09:14:31;;;;;;;13.00;5.10;;;;;;;9.97;55.92;99906.13;8447524;28;20226;-69
2022/01/18 09:18:35;;;;;;;11.23;4.90;;;;;;;10.04;56.07;99906.06;8448244;28;20233;-68
2022/01/18 09:22:41;;;;;;;11.10;5.47;;;;;;;9.97;56.05;99911.28;8448091;28;20591;-71
2022/01/18 09:26:45;;;;;;;10.57;5.37;;;;;;;9.40;57.17;99918.75;8447710;28;20537;-68
2022/01/18 09:30:49;;;;;;;11.60;5.33;;;;;;;9.38;57.50;99915.31;8447537;28;20236;-69
2022/01/18 09:34:52;;;;;;;9.80;5.10;;;;;;;9.59;57.46;99912.56;8447425;28;20241;-69
2022/01/18 09:38:55;;;;;;;8.80;4.30;;;;;;;9.53;57.49;99922.94;8447684;28;20234;-69
2022/01/18 09:43:08;;;;;;;9.70;4.20;;;;;;;9.73;56.94;99917.59;8447432;28;20453;-68
2022/01/18 09:47:10;;;;;;;12.40;4.23;;;;;;;9.83;56.83;99918.38;8447373;28;20234;-68
2022/01/18 09:51:13;;;;;;;7.80;3.60;;;;;;;10.06;57.46;99917.28;8447767;28;20529;-67
2022/01/18 09:55:16;;;;;;;10.00;3.80;;;;;;;10.78;55.02;99921.56;8447680;28;20416;-68
2022/01/18 09:59:21;;;;;;;9.73;4.23;;;;;;;10.71;55.14;99933.75;8447091;28;20233;-68
2022/01/18 10:03:30;;;;;;;10.90;3.93;;;;;;;10.49;55.51;99928.00;8450325;28;20226;-69
2022/01/18 10:07:33;;;;;;;7.50;3.03;;;;;;;10.37;54.97;99934.16;8453301;28;20296;-68
2022/01/18 10:11:36;;;;;;;6.53;2.97;;;;;;;10.27;55.48;99940.31;8453605;28;20230;-69
2022/01/18 10:15:41;;;;;;;6.07;2.80;;;;;;;10.06;55.07;99928.47;8453573;28;20230;-68
2022/01/18 10:19:49;;;;;;;5.43;2.20;;;;;;;10.05;55.21;99926.78;8453894;28;20529;-67
2022/01/18 10:23:54;;;;;;;3.80;2.20;;;;;;;9.95;55.03;99931.16;8453448;28;20249;-68
2022/01/18 10:27:57;;;;;;;7.90;2.20;;;;;;;9.95;55.28;99928.56;8453373;28;20245;-69
2022/01/18 10:32:11;;;;;;;7.13;2.30;;;;;;;10.30;55.30;99919.59;8452870;28;20226;-69
2022/01/18 10:36:16;;;;;;;5.60;2.10;;;;;;;10.32;54.74;99917.84;8453053;28;20226;-68
2022/01/18 10:40:20;;;;;;;4.27;2.07;;;;;;;10.02;54.15;99911.25;8452955;28;20234;-68
2022/01/18 10:44:24;;;;;;;5.17;2.00;;;;;;;10.18;55.06;99911.94;8452780;28;20232;-68
2022/01/18 10:48:28;;;;;;;6.93;2.30;;;;;;;10.08;55.22;99913.78;8452547;28;20339;-68
2022/01/18 10:52:31;;;;;;;4.97;2.27;;;;;;;10.25;54.66;99916.16;8451779;28;20226;-69
2022/01/18 10:56:41;;;;;;;5.90;2.40;;;;;;;10.90;52.31;99917.94;8451723;28;20230;-68
2022/01/18 11:00:44;;;;;;;5.93;2.20;;;;;;;11.19;52.79;99906.28;8452204;28;20234;-69
2022/01/18 11:04:51;;;;;;;5.87;2.30;;;;;;;11.42;51.74;99908.47;8451734;28;20323;-68
2022/01/18 11:08:54;;;;;;;5.20;2.03;;;;;;;11.05;51.96;99904.75;8451884;28;20426;-68
2022/01/18 11:13:04;;;;;;;5.37;2.27;;;;;;;11.14;51.89;99894.25;8451277;28;20237;-68
2022/01/18 11:17:08;;;;;;;4.30;2.10;;;;;;;10.96;53.01;99881.56;8451158;28;20234;-69
2022/01/18 11:21:16;;;;;;;4.17;2.00;;;;;;;11.06;52.44;99887.44;8451160;28;20229;-68
2022/01/18 11:25:19;;;;;;;4.93;2.10;;;;;;;10.91;53.31;99891.16;8451573;28;20230;-68
2022/01/18 11:29:23;;;;;;;4.47;2.20;;;;;;;10.50;54.29;99893.44;8451434;28;20237;-68
2022/01/18 11:33:27;;;;;;;4.63;1.80;;;;;;;10.41;53.94;99887.53;8450679;28;20230;-68
2022/01/18 11:37:38;;;;;;;4.83;2.00;;;;;;;10.20;55.02;99884.28;8451020;28;20236;-68
2022/01/18 11:41:42;;;;;;;7.23;2.27;;;;;;;9.78;57.25;99884.75;8450261;28;20222;-68
2022/01/18 11:45:45;;;;;;;7.47;2.17;;;;;;;9.94;56.66;99890.66;8450584;28;20312;-68
2022/01/18 11:49:50;;;;;;;3.37;1.83;;;;;;;10.05;56.85;99893.13;8449924;28;20234;-67
2022/01/18 11:54:06;;;;;;;4.37;1.90;;;;;;;9.94;56.27;99888.06;8450290;28;20226;-69
2022/01/18 11:58:11;;;;;;;4.07;2.10;;;;;;;10.15;56.80;99883.50;8450251;28;20236;-67
2022/01/18 12:02:27;;;;;;;4.30;2.10;;;;;;;10.49;55.86;99878.78;8454052;28;20452;-67
2022/01/18 12:06:45;;;;;;;3.53;2.10;;;;;;;10.63;54.09;99880.34;8449926;28;20586;-67
2022/01/18 12:10:49;;;;;;;4.20;2.27;;;;;;;10.83;54.11;99880.03;8434945;28;20226;-67
2022/01/18 12:14:52;;;;;;;4.90;2.40;;;;;;;10.63;54.40;99880.34;8450000;28;20521;-67
2022/01/18 12:18:59;;;;;;;4.33;2.13;;;;;;;10.64;53.37;99879.44;8450068;28;20413;-67
2022/01/18 12:23:03;;;;;;;6.47;2.40;;;;;;;10.57;53.69;99878.69;8449631;28;20248;-76
2022/01/18 12:27:29;;;;;;;3.57;2.10;;;;;;;10.49;54.07;99871.03;8449706;28;20237;-75
2022/01/18 12:32:17;;;;;;;5.07;2.10;;;;;;;10.21;54.29;99867.03;8449058;28;20222;-73
2022/01/18 12:36:27;;;;;;;3.70;2.33;;;;;;;9.77;55.36;99872.72;8449458;28;20225;-67
2022/01/18 12:40:35;;;;;;;3.00;1.80;;;;;;;9.68;57.38;99871.94;8449404;28;20237;-67
2022/01/18 12:44:45;;;;;;;3.00;1.30;;;;;;;9.44;58.03;99858.38;8448756;28;20229;-68
2022/01/18 12:48:48;;;;;;;2.50;1.37;;;;;;;9.32;58.43;99867.09;8451225;28;20238;-67
2022/01/18 12:52:54;;;;;;;2.83;1.33;;;;;;;9.73;57.77;99858.09;8448618;28;20242;-67
2022/01/18 12:56:57;;;;;;;1.93;1.13;;;;;;;9.61;57.87;99853.03;8451581;28;20234;-67
2022/01/18 13:01:04;;;;;;;5.07;1.67;;;;;;;9.40;57.90;99846.34;8469074;28;20221;-68
2022/01/18 13:05:09;;;;;;;2.33;1.40;;;;;;;9.72;57.89;99847.75;8465490;28;20228;-67
2022/01/18 13:09:11;;;;;;;2.90;1.20;;;;;;;9.61;57.50;99849.59;8462731;28;20226;-67
2022/01/18 13:13:19;;;;;;;5.07;2.90;;;;;;;9.58;57.60;99841.00;8463784;28;20224;-67
2022/01/18 13:26:15;;;;;;;4.73;2.90;;;;;;;9.62;56.58;99835.81;8481220;28;20230;-68
2022/01/18 13:30:22;;;;;;;5.83;2.90;;;;;;;9.76;55.89;99829.56;8481041;28;20236;-68
2022/01/18 13:34:31;;;;;;;2.60;1.30;;;;;;;9.96;55.81;99838.88;8480680;28;20584;-67
2022/01/18 13:38:34;;;;;;;5.73;2.70;;;;;;;10.07;55.31;99820.59;8479972;28;20536;-68
2022/01/18 13:42:40;;;;;;;3.73;1.90;;;;;;;10.21;55.27;99833.38;8481063;28;20229;-69
2022/01/18 13:46:43;;;;;;;3.73;1.23;;;;;;;10.18;55.06;99829.97;8480668;28;20274;-68
2022/01/18 13:50:50;;;;;;;4.07;1.70;;;;;;;10.08;55.53;99824.91;8480954;28;20233;-67
2022/01/18 13:54:54;;;;;;;2.63;1.10;;;;;;;10.20;54.46;99832.50;8480942;28;20317;-67
2022/01/18 13:59:01;;;;;;;2.37;1.20;;;;;;;10.34;54.51;99827.19;8480925;28;20233;-68
2022/01/18 14:03:04;;;;;;;2.60;1.50;;;;;;;10.56;54.73;99827.72;8480715;28;20225;-67
2022/01/18 14:07:09;;;;;;;4.33;1.80;;;;;;;10.61;52.31;99810.41;8480609;28;20241;-67
2022/01/18 14:11:16;;;;;;;4.17;1.50;;;;;;;10.89;53.79;99821.19;8480883;28;20407;-68
2022/01/18 14:15:41;;;;;;;2.97;1.50;;;;;;;11.24;52.87;99816.28;8481056;28;20226;-67
2022/01/18 14:19:45;;;;;;;1.37;0.83;;;;;;;10.94;52.38;99827.13;8446664;28;20582;-67
2022/01/18 14:23:49;;;;;;;2.63;1.13;;;;;;;10.39;53.75;99821.94;8446848;28;20240;-67
2022/01/18 14:27:52;;;;;;;2.30;1.57;;;;;;;10.56;53.51;99813.03;8446933;28;20230;-67
2022/01/18 14:32:00;;;;;;;2.77;1.10;;;;;;;10.49;54.61;99820.91;8446474;28;20234;-67
2022/01/18 14:36:15;;;;;;;3.27;1.30;;;;;;;10.18;54.33;99819.59;8446441;28;20230;-67
2022/01/18 14:40:24;;;;;;;3.30;1.40;;;;;;;9.99;54.50;99818.09;8446467;28;20233;-67
2022/01/18 14:44:47;;;;;;;2.60;1.30;;;;;;;10.03;55.08;99818.94;8446776;28;20534;-67
2022/01/18 14:48:50;;;;;;;2.33;1.20;;;;;;;9.91;55.82;99825.13;8448433;28;20236;-67
2022/01/18 14:52:54;;;;;;;3.57;1.47;;;;;;;9.76;56.06;99823.56;8452299;28;20238;-67
2022/01/18 14:56:59;;;;;;;3.17;1.20;;;;;;;9.77;55.87;99817.53;8452359;28;20415;-67
2022/01/18 15:01:04;;;;;;;3.03;1.50;;;;;;;9.66;55.67;99815.03;8451830;28;20222;-67
2022/01/18 15:05:08;;;;;;;2.87;1.30;;;;;;;9.65;55.49;99828.00;8446625;28;20222;-67
2022/01/18 15:09:11;;;;;;;5.60;1.37;;;;;;;9.70;55.68;99818.47;8445138;28;20236;-67
2022/01/18 15:13:15;;;;;;;4.43;2.70;;;;;;;9.61;56.12;99821.16;8451140;28;20241;-67
2022/01/18 15:17:19;;;;;;;4.17;1.50;;;;;;;9.62;56.56;99821.13;8451562;28;20533;-67
2022/01/18 15:21:22;;;;;;;3.30;1.40;;;;;;;9.51;56.54;99817.81;8451479;28;20237;-68
2022/01/18 15:25:26;;;;;;;4.53;1.50;;;;;;;9.51;56.85;99815.22;8450264;28;20228;-67
2022/01/18 15:29:30;;;;;;;5.10;2.00;;;;;;;9.56;57.36;99806.53;8450495;28;20226;-68
2022/01/18 15:33:33;;;;;;;3.07;1.97;;;;;;;9.36;57.92;99808.47;8449550;28;20221;-67
2022/01/18 15:37:36;;;;;;;11.80;7.17;;;;;;;9.51;57.91;99817.81;8450376;28;20232;-68
2022/01/18 15:41:40;;;;;;;8.23;4.80;;;;;;;9.37;58.08;99816.22;8451054;28;20225;-67
2022/01/18 15:45:44;;;;;;;6.40;3.77;;;;;;;9.34;58.54;99817.97;8450847;28;20283;-67
2022/01/18 15:49:47;;;;;;;5.10;3.07;;;;;;;9.27;57.95;99811.13;8450492;28;20234;-67
2022/01/18 15:53:52;;;;;;;4.57;2.50;;;;;;;9.30;57.68;99811.97;8450294;28;23482;-67
2022/01/18 15:57:55;;;;;;;5.80;2.30;;;;;;;9.36;58.37;99821.41;8450202;28;20229;-67
2022/01/18 16:01:59;;;;;;;8.00;5.07;;;;;;;9.23;57.42;99822.38;8449533;28;20230;-67
2022/01/18 16:06:03;;;;;;;5.47;3.40;;;;;;;9.32;57.49;99817.97;8450401;28;20238;-68
2022/01/18 16:10:06;;;;;;;10.83;7.80;;;;;;;9.30;57.41;99824.03;8450104;28;20238;-67
2022/01/18 16:14:09;;;;;;;6.97;3.33;;;;;;;9.06;57.65;99822.53;8449664;28;20226;-67
2022/01/18 16:18:13;;;;;;;4.70;3.23;;;;;;;8.90;58.45;99817.50;8449905;28;20232;-67
2022/01/18 16:22:17;;;;;;;15.83;8.93;;;;;;;8.93;58.07;99825.22;8449374;28;20282;-68
2022/01/18 16:26:20;;;;;;;12.70;7.33;;;;;;;9.13;57.57;99817.28;8449209;28;20226;-67
2022/01/18 16:30:24;;;;;;;10.87;6.43;;;;;;;9.25;57.22;99828.38;8449118;28;20241;-67
2022/01/18 16:34:28;;;;;;;10.97;7.60;;;;;;;9.10;57.52;99834.53;8449221;28;20236;-67
2022/01/18 16:38:31;;;;;;;8.63;5.50;;;;;;;9.26;57.52;99828.38;8448653;28;20222;-68
2022/01/18 16:42:35;;;;;;;9.73;5.97;;;;;;;9.08;57.84;99837.16;8448769;28;20234;-67
2022/01/18 16:46:38;;;;;;;8.47;5.37;;;;;;;9.10;57.63;99824.22;8448738;28;20230;-67
2022/01/18 16:50:42;;;;;;;16.83;9.33;;;;;;;8.83;57.83;99838.22;8448714;28;20234;-67
2022/01/18 16:54:45;;;;;;;10.83;6.07;;;;;;;9.13;57.63;99844.88;8448554;28;20423;-68
2022/01/18 16:58:51;;;;;;;7.40;4.77;;;;;;;9.12;57.87;99849.19;8448420;28;20234;-67
2022/01/18 17:02:54;;;;;;;6.73;4.83;;;;;;;9.12;58.04;99845.72;8448519;28;20226;-68
2022/01/18 17:07:01;;;;;;;9.70;6.40;;;;;;;9.11;58.31;99850.06;8448389;28;20236;-67
2022/01/18 17:11:04;;;;;;;16.83;10.83;;;;;;;9.11;58.67;99844.88;8447643;28;20237;-67
2022/01/18 17:15:08;;;;;;;14.23;9.50;;;;;;;9.00;59.00;99852.75;8444467;28;20237;-68
2022/01/18 17:19:11;;;;;;;11.00;8.30;;;;;;;9.12;58.93;99850.91;8436233;28;20233;-69
2022/01/18 17:23:16;;;;;;;11.83;7.57;;;;;;;9.11;59.09;99855.22;8446570;28;20230;-71
2022/01/18 17:27:19;;;;;;;15.63;12.37;;;;;;;9.09;59.08;99858.69;8446109;28;20415;-68
2022/01/18 17:31:22;;;;;;;8.90;6.00;;;;;;;9.00;59.04;99859.63;8446679;28;20226;-68
2022/01/18 17:35:26;;;;;;;8.47;5.87;;;;;;;9.07;58.82;99858.72;8447241;28;20534;-67
2022/01/18 17:39:30;;;;;;;8.13;4.93;;;;;;;9.06;58.90;99850.97;8446958;28;20226;-67
2022/01/18 17:43:34;;;;;;;7.40;5.73;;;;;;;9.07;59.05;99852.69;8440803;28;20305;-70
2022/01/18 17:47:39;;;;;;;9.07;6.43;;;;;;;9.02;59.09;99851.84;8445897;28;20245;-68
2022/01/18 17:51:42;;;;;;;7.80;5.50;;;;;;;8.99;59.18;99855.34;8451360;28;20419;-68
2022/01/18 17:55:47;;;;;;;7.73;6.07;;;;;;;9.00;59.74;99851.88;8446584;28;20392;-68
2022/01/18 17:59:51;;;;;;;10.73;7.23;;;;;;;8.97;59.76;99850.16;8439760;28;20233;-68
2022/01/18 18:03:54;;;;;;;13.40;10.00;;;;;;;9.01;59.54;99843.25;8441057;28;20226;-69
2022/01/18 18:07:57;;;;;;;16.03;11.53;;;;;;;9.07;59.40;99839.75;8429224;28;20226;-68
2022/01/18 18:12:02;;;;;;;13.80;11.33;;;;;;;8.96;59.85;99827.75;8434856;28;20236;-68
2022/01/18 18:16:06;;;;;;;12.37;9.73;;;;;;;8.97;59.69;99828.66;8431110;28;20421;-68
2022/01/18 18:20:09;;;;;;;11.67;9.50;;;;;;;8.95;59.81;99820.06;8413410;28;20269;-68
2022/01/18 18:24:14;;;;;;;14.00;9.83;;;;;;;8.92;59.91;99813.16;8416410;28;20237;-68
2022/01/18 18:28:19;;;;;;;13.93;9.13;;;;;;;8.95;60.06;99820.06;8420006;28;20226;-68
2022/01/18 18:32:22;;;;;;;12.63;9.17;;;;;;;8.95;59.85;99817.47;8419755;28;20231;-68
2022/01/18 18:36:25;;;;;;;10.83;8.70;;;;;;;8.98;59.91;99820.84;8419659;28;20226;-68
2022/01/18 18:40:35;;;;;;;13.27;9.47;;;;;;;8.91;60.26;99814.06;8419480;28;20230;-68
2022/01/18 18:44:42;;;;;;;14.93;11.23;;;;;;;8.83;60.12;99802.91;8418789;28;20230;-68
2022/01/18 18:48:45;;;;;;;13.67;10.63;;;;;;;8.83;60.22;99794.31;8419028;28;20230;-68
2022/01/18 18:52:48;;;;;;;9.87;8.67;;;;;;;8.86;59.73;99792.56;8418786;28;20242;-68
2022/01/18 18:56:52;;;;;;;12.00;10.00;;;;;;;8.92;59.47;99769.25;8419020;28;20250;-67
2022/01/18 19:01:08;;;;;;;13.40;10.20;;;;;;;8.89;59.81;99766.69;8419130;28;20230;-68
2022/01/18 19:05:11;;;;;;;17.67;14.53;;;;;;;8.87;60.04;99767.56;8418721;28;20231;-68
2022/01/18 19:09:15;;;;;;;16.47;12.77;;;;;;;8.86;60.14;99791.69;8418356;28;20230;-68
2022/01/18 19:13:19;;;;;;;16.57;11.70;;;;;;;8.89;59.77;99794.25;8418729;28;20235;-68
2022/01/18 19:17:23;;;;;;;16.30;12.37;;;;;;;8.95;59.51;99807.97;8452630;28;20378;-68
2022/01/18 19:21:27;;;;;;;15.13;11.43;;;;;;;8.95;59.46;99810.56;8451589;28;20237;-67
2022/01/18 19:25:33;;;;;;;16.33;12.30;;;;;;;8.82;60.04;99808.09;8450779;28;20236;-68
2022/01/18 19:29:36;;;;;;;16.27;12.60;;;;;;;8.60;60.16;99805.66;8450815;28;20233;-69
2022/01/18 19:33:40;;;;;;;20.30;15.53;;;;;;;8.91;59.39;99808.88;8451110;28;20230;-68
2022/01/18 19:37:43;;;;;;;18.87;15.47;;;;;;;8.71;59.51;99805.59;8450319;28;20229;-69
2022/01/18 19:41:51;;;;;;;20.87;15.60;;;;;;;8.95;66.99;99800.22;8451086;28;20447;-74
2022/01/18 19:45:54;;;;;;;14.20;8.30;;;;;;;10.72;60.25;99792.09;8450817;28;20232;-74
2022/01/18 19:49:59;;;;;;;9.50;6.97;;;;;;;10.04;54.68;99798.19;8449682;28;20418;-70
2022/01/18 19:54:02;;;;;;;11.63;10.27;;;;;;;9.56;55.49;99795.34;8450742;28;20226;-71
2022/01/18 19:58:10;;;;;;;16.20;12.60;;;;;;;9.16;55.67;99777.66;8450628;28;20226;-71
2022/01/18 20:02:14;;;;;;;13.13;10.70;;;;;;;8.84;57.33;99786.53;8450366;28;20422;-70
2022/01/18 20:06:18;;;;;;;8.93;7.73;;;;;;;8.84;55.44;99780.53;8449922;28;20230;-71
2022/01/18 20:10:22;;;;;;;15.90;11.83;;;;;;;8.65;55.04;99785.81;8447153;28;20234;-71